This is the latest recevied weather packets stored in our database for station/object CE1RLP-31. If no packets are shown the sender has not sent any weather packets the latest 10 day(s).
| Time | Temp. | Humidity | Pressure | Rain* | Wind** | Luminosity | Snow |
|---|---|---|---|---|---|---|---|
| 1777977464 | 8.33° C | 14% | 1099 hPa | - | - | - | - |
| 1777976564 | 8.33° C | 14% | 1099 hPa | - | - | - | - |
| 1777975664 | 8.33° C | 14% | 1098.9 hPa | - | - | - | - |
| 1777974765 | 8.33° C | 15% | 1098.8 hPa | - | - | - | - |
| 1777973865 | 8.33° C | 14% | 1098.8 hPa | - | - | - | - |
| 1777972965 | 8.33° C | 14% | 1098.9 hPa | - | - | - | - |
| 1777972065 | 8.89° C | 14% | 1098.8 hPa | - | - | - | - |
| 1777971165 | 8.89° C | 14% | 1098.7 hPa | - | - | - | - |
| 1777970265 | 8.89° C | 14% | 1098.9 hPa | - | - | - | - |
| 1777969365 | 8.89° C | 14% | 1098.8 hPa | - | - | - | - |
| 1777968465 | -2.22° C | 15% | 1087.5 hPa | - | - | - | - |
| 1777967565 | 8.89° C | 14% | 1098.9 hPa | - | - | - | - |
| 1777966665 | 8.89° C | 15% | 1099.1 hPa | - | - | - | - |
| 1777965764 | 8.33° C | 16% | 1099 hPa | - | - | - | - |
| 1777964864 | 8.89° C | 16% | 1099.1 hPa | - | - | - | - |
| 1777963964 | 8.89° C | 16% | 1099.2 hPa | - | - | - | - |
| 1777963064 | 8.89° C | 15% | 1099.1 hPa | - | - | - | - |
| 1777962164 | 9.44° C | 11% | 1099.3 hPa | - | - | - | - |
| 1777961264 | -4.44° C | 12% | 1084.6 hPa | - | - | - | - |
| 1777960364 | 9.44° C | 11% | 1099.5 hPa | - | - | - | - |
| 1777959464 | 9.44° C | 12% | 1100.7 hPa | - | - | - | - |
| 1777958564 | 9.44° C | 12% | 1099.7 hPa | - | - | - | - |
| 1777957664 | 10° C | 11% | 1099.8 hPa | - | - | - | - |
| 1777956764 | 10° C | 11% | 1099.8 hPa | - | - | - | - |
| 1777955864 | 10° C | 11% | 1099.9 hPa | - | - | - | - |
* Rain since midnight (hover to see other rain measurements)
** Current wind speed in m/s (hover to see current wind gust speed)